Time;durP1;ratioP1;P1;durP2;ratioP2;P2;SDS_P1;SDS_P2;PMS_P1;PMS_P2;Temp;Humidity;BMP_temperature;BMP_pressure;BME280_temperature;BME280_humidity;BME280_pressure;Samples;Min_cycle;Max_cycle;Signal;HPM_P1;HPM_P2
2023/06/22 00:00:41;;;;;;;15.45;6.43;;;22.00;72.30;;;;;;5054997;28;20385;-70
2023/06/22 00:03:07;;;;;;;14.73;6.90;;;21.90;72.30;;;;;;5055574;28;20047;-70
2023/06/22 00:05:32;;;;;;;12.20;7.07;;;21.90;72.40;;;;;;5055179;28;20036;-70
2023/06/22 00:08:01;;;;;;;12.25;6.00;;;21.80;72.80;;;;;;5037274;28;20036;-70
2023/06/22 00:10:27;;;;;;;13.25;6.32;;;21.80;73.00;;;;;;5055435;28;20350;-69
2023/06/22 00:12:52;;;;;;;14.35;6.13;;;21.80;72.80;;;;;;5055264;28;20044;-70
2023/06/22 00:15:18;;;;;;;13.70;6.60;;;21.80;72.80;;;;;;5055142;28;20041;-70
2023/06/22 00:17:45;;;;;;;12.52;6.20;;;21.80;72.90;;;;;;5055379;28;20025;-70
2023/06/22 00:20:11;;;;;;;10.73;5.35;;;21.80;72.90;;;;;;5055259;28;20025;-71
2023/06/22 00:22:38;;;;;;;8.25;5.32;;;21.80;72.70;;;;;;5055182;28;20493;-70
2023/06/22 00:25:06;;;;;;;9.98;5.43;;;21.80;72.70;;;;;;5055412;28;20032;-70
2023/06/22 00:27:32;;;;;;;10.38;5.10;;;21.80;72.80;;;;;;5055083;28;20025;-72
2023/06/22 00:29:57;;;;;;;9.80;5.30;;;21.90;72.90;;;;;;5037398;28;20024;-70
2023/06/22 00:32:23;;;;;;;15.02;6.85;;;21.80;72.80;;;;;;5037304;28;20031;-75
2023/06/22 00:34:48;;;;;;;11.23;5.80;;;21.90;72.70;;;;;;5054944;28;20064;-75
2023/06/22 00:37:14;;;;;;;8.40;4.75;;;21.80;72.70;;;;;;5054956;28;20024;-69
2023/06/22 00:39:39;;;;;;;10.32;5.13;;;21.80;72.90;;;;;;5055113;28;20504;-72
2023/06/22 00:42:05;;;;;;;11.68;5.53;;;21.80;73.10;;;;;;5055013;28;20461;-70
2023/06/22 00:44:31;;;;;;;6.95;4.88;;;21.80;73.20;;;;;;5042178;28;20047;-75
2023/06/22 00:46:56;;;;;;;12.43;6.05;;;21.70;73.30;;;;;;5058093;28;20033;-80
2023/06/22 00:49:22;;;;;;;10.45;5.18;;;21.70;73.60;;;;;;5058560;28;20484;-70
2023/06/22 00:51:47;;;;;;;11.05;5.75;;;21.60;73.50;;;;;;5055466;28;20024;-78
2023/06/22 00:54:13;;;;;;;11.52;4.88;;;21.60;73.50;;;;;;5055388;28;20035;-76
2023/06/22 00:56:40;;;;;;;9.85;5.05;;;21.60;73.60;;;;;;5054625;28;20032;-74
2023/06/22 00:59:06;;;;;;;9.07;4.80;;;21.60;73.70;;;;;;5054757;28;20611;-74
2023/06/22 01:01:34;;;;;;;9.02;5.18;;;21.50;74.10;;;;;;5054554;28;20029;-73
2023/06/22 01:04:00;;;;;;;11.70;5.43;;;21.50;74.40;;;;;;5054482;28;20021;-74
2023/06/22 01:06:41;;;;;;;9.23;5.30;;;21.50;74.40;;;;;;5054254;28;20070;-70
2023/06/22 01:09:15;;;;;;;11.23;5.18;;;21.50;74.40;;;;;;5035294;28;20041;-80
2023/06/22 01:12:08;;;;;;;11.60;5.80;;;21.40;74.40;;;;;;5016527;28;20041;-82
2023/06/22 01:14:41;;;;;;;12.90;5.57;;;21.30;74.80;;;;;;5030912;28;20132;-80
2023/06/22 01:17:09;;;;;;;11.48;5.47;;;21.20;75.20;;;;;;5033883;28;20120;-79
2023/06/22 01:19:37;;;;;;;15.82;6.95;;;21.20;75.20;;;;;;5034292;28;20022;-80
2023/06/22 01:22:05;;;;;;;14.40;7.18;;;21.10;76.00;;;;;;5034133;28;20068;-79
2023/06/22 01:24:41;;;;;;;10.50;6.45;;;21.00;76.30;;;;;;5034103;28;20036;-82
2023/06/22 01:27:22;;;;;;;18.10;8.30;;;20.90;77.00;;;;;;5016258;28;20033;-73
2023/06/22 01:30:00;;;;;;;12.85;6.70;;;20.80;77.80;;;;;;5034079;28;20112;-70
2023/06/22 01:32:30;;;;;;;11.77;5.88;;;20.70;78.30;;;;;;5033802;28;20400;-72
2023/06/22 01:34:57;;;;;;;15.68;7.57;;;20.70;78.20;;;;;;5033865;28;20083;-70
2023/06/22 01:37:23;;;;;;;15.40;6.90;;;20.70;78.00;;;;;;5033901;28;20079;-72
2023/06/22 01:39:49;;;;;;;13.20;6.95;;;20.70;77.80;;;;;;5033677;28;20417;-70
2023/06/22 01:42:15;;;;;;;15.85;7.78;;;20.70;77.80;;;;;;5033905;28;20083;-71
2023/06/22 01:44:41;;;;;;;12.15;7.32;;;20.70;77.80;;;;;;5033775;28;20029;-70
2023/06/22 01:47:07;;;;;;;11.50;6.25;;;20.70;77.90;;;;;;5033679;28;20033;-71
2023/06/22 01:49:33;;;;;;;13.35;6.05;;;20.70;77.90;;;;;;5033675;28;20039;-76
2023/06/22 01:51:58;;;;;;;11.10;6.55;;;20.60;77.80;;;;;;5033530;28;20029;-70
2023/06/22 01:54:24;;;;;;;13.23;6.15;;;20.60;78.00;;;;;;5033506;28;20144;-77
2023/06/22 01:56:50;;;;;;;8.90;5.80;;;20.60;77.80;;;;;;5033617;28;20109;-70
2023/06/22 01:59:47;;;;;;;8.75;5.93;;;20.60;77.90;;;;;;5033524;28;20374;-76
2023/06/22 02:02:16;;;;;;;12.80;5.55;;;20.60;77.80;;;;;;5022725;28;20038;-79
2023/06/22 02:04:51;;;;;;;8.98;5.50;;;20.50;77.70;;;;;;5033343;28;20432;-79
2023/06/22 02:07:20;;;;;;;9.85;5.63;;;20.50;77.70;;;;;;5033453;28;20022;-79
2023/06/22 02:09:48;;;;;;;10.05;5.72;;;20.50;77.70;;;;;;5033163;28;20041;-79
2023/06/22 02:12:18;;;;;;;12.32;5.57;;;20.50;77.70;;;;;;5033318;28;20027;-79
2023/06/22 02:14:46;;;;;;;12.25;5.75;;;20.40;77.60;;;;;;5033034;28;20433;-79
2023/06/22 02:17:12;;;;;;;12.85;5.10;;;20.40;77.70;;;;;;5033143;28;20034;-80
2023/06/22 02:19:40;;;;;;;11.13;5.72;;;20.40;77.70;;;;;;5015427;28;20078;-80
2023/06/22 02:22:06;;;;;;;12.93;6.75;;;20.40;77.80;;;;;;5033224;28;20394;-74
2023/06/22 02:24:33;;;;;;;12.55;7.35;;;20.30;78.00;;;;;;5032664;28;20032;-70
2023/06/22 02:26:59;;;;;;;11.82;6.45;;;20.30;77.70;;;;;;5033216;28;20110;-70
2023/06/22 02:29:24;;;;;;;11.77;6.97;;;20.20;78.10;;;;;;5032974;28;20041;-74
2023/06/22 02:31:50;;;;;;;10.25;6.57;;;20.10;78.40;;;;;;5015150;28;20028;-70
2023/06/22 02:34:18;;;;;;;12.95;7.07;;;20.10;78.60;;;;;;5015052;28;20090;-71
2023/06/22 02:36:50;;;;;;;13.98;6.32;;;20.10;78.70;;;;;;5033156;28;20036;-74
2023/06/22 02:39:23;;;;;;;12.55;7.35;;;20.00;78.60;;;;;;5033265;28;20025;-70
2023/06/22 02:41:53;;;;;;;9.65;6.40;;;20.00;78.70;;;;;;5032948;28;20025;-72
2023/06/22 02:44:19;;;;;;;10.35;6.88;;;20.00;78.70;;;;;;5032889;28;20020;-71
2023/06/22 02:46:46;;;;;;;10.70;6.45;;;20.00;78.70;;;;;;5032863;28;20044;-70
2023/06/22 02:49:12;;;;;;;12.45;7.43;;;19.90;78.70;;;;;;5032784;28;20129;-70
2023/06/22 02:51:45;;;;;;;10.43;7.25;;;19.80;78.70;;;;;;5032821;28;20064;-70
2023/06/22 02:54:11;;;;;;;13.68;6.65;;;19.80;78.80;;;;;;5032677;28;20041;-70
2023/06/22 02:56:36;;;;;;;13.15;7.07;;;19.90;78.90;;;;;;5032593;28;20033;-72
2023/06/22 02:59:02;;;;;;;13.32;6.47;;;19.90;78.70;;;;;;5032785;28;20025;-73
2023/06/22 03:01:30;;;;;;;8.48;5.53;;;19.80;78.70;;;;;;5032567;28;20128;-70
2023/06/22 03:03:56;;;;;;;8.88;5.72;;;19.80;78.70;;;;;;5032694;28;20025;-70
2023/06/22 03:06:23;;;;;;;12.30;6.30;;;19.80;78.80;;;;;;5032619;28;20029;-70
2023/06/22 03:08:50;;;;;;;10.07;5.47;;;19.80;79.00;;;;;;5032351;28;20405;-72
2023/06/22 03:11:15;;;;;;;11.60;6.10;;;19.80;78.90;;;;;;5032452;28;20109;-70
2023/06/22 03:13:41;;;;;;;9.98;6.47;;;19.80;78.90;;;;;;5032468;28;20109;-71
2023/06/22 03:16:07;;;;;;;10.88;6.10;;;19.80;78.90;;;;;;5032485;28;20477;-71
2023/06/22 03:18:32;;;;;;;18.30;7.75;;;19.80;78.80;;;;;;5032357;28;20096;-71
2023/06/22 03:20:58;;;;;;;13.90;6.15;;;19.70;79.00;;;;;;5032429;28;20076;-70
2023/06/22 03:23:24;;;;;;;12.65;7.53;;;19.60;79.10;;;;;;5032519;28;20101;-71
2023/06/22 03:25:49;;;;;;;14.30;6.68;;;19.50;79.50;;;;;;5032451;28;20021;-70
2023/06/22 03:28:15;;;;;;;11.73;6.28;;;19.50;79.50;;;;;;5032578;28;20363;-70
2023/06/22 03:30:40;;;;;;;8.60;5.75;;;19.50;79.50;;;;;;5032567;28;20018;-70
2023/06/22 03:33:06;;;;;;;9.38;5.90;;;19.50;79.30;;;;;;5032416;28;20036;-70
2023/06/22 03:35:31;;;;;;;13.77;6.35;;;19.50;79.20;;;;;;5032025;28;20038;-70
2023/06/22 03:37:57;;;;;;;9.32;6.13;;;19.50;79.10;;;;;;5035730;28;20033;-70
2023/06/22 03:40:22;;;;;;;12.85;6.00;;;19.50;79.30;;;;;;5035859;28;20052;-70
2023/06/22 03:42:48;;;;;;;11.23;5.75;;;19.40;79.10;;;;;;5035824;28;20374;-70
2023/06/22 03:45:13;;;;;;;12.00;5.60;;;19.40;79.10;;;;;;5035994;28;20064;-70
2023/06/22 03:47:39;;;;;;;13.55;6.68;;;19.40;79.00;;;;;;5018058;28;20018;-70
2023/06/22 03:50:05;;;;;;;12.60;6.07;;;19.50;79.00;;;;;;5035798;28;20034;-70
2023/06/22 03:52:31;;;;;;;15.43;6.47;;;19.40;79.10;;;;;;5017986;28;20021;-70
2023/06/22 03:54:57;;;;;;;11.38;5.88;;;19.50;79.10;;;;;;5035516;28;20033;-70
2023/06/22 03:57:22;;;;;;;9.48;5.32;;;19.50;79.10;;;;;;5018191;28;20374;-70
2023/06/22 03:59:48;;;;;;;11.82;5.43;;;19.60;79.00;;;;;;5035669;28;20378;-72
2023/06/22 04:02:13;;;;;;;9.18;5.25;;;19.60;78.70;;;;;;5035639;28;20030;-69
2023/06/22 04:04:39;;;;;;;11.85;5.18;;;19.60;79.20;;;;;;5035702;28;20026;-69
2023/06/22 04:07:05;;;;;;;8.85;5.68;;;19.60;78.50;;;;;;5035623;28;20386;-69
2023/06/22 04:09:31;;;;;;;10.50;5.60;;;19.60;78.50;;;;;;5035275;28;20476;-72
2023/06/22 04:11:56;;;;;;;14.95;6.80;;;19.70;78.40;;;;;;5035319;28;20022;-70
2023/06/22 04:14:22;;;;;;;8.80;5.30;;;19.70;78.40;;;;;;5035385;28;20022;-70
2023/06/22 04:16:47;;;;;;;10.93;6.00;;;19.70;78.30;;;;;;5017514;28;20144;-70
2023/06/22 04:19:16;;;;;;;16.20;6.57;;;19.80;78.10;;;;;;5035225;28;20021;-70
2023/06/22 04:21:44;;;;;;;7.40;5.07;;;19.90;77.90;;;;;;5035005;28;20025;-73
2023/06/22 04:24:10;;;;;;;10.55;4.63;;;19.90;77.40;;;;;;5035246;28;20551;-74
2023/06/22 04:26:36;;;;;;;6.93;4.85;;;20.00;77.00;;;;;;5036064;28;20057;-70
2023/06/22 04:29:05;;;;;;;8.70;5.22;;;20.10;76.80;;;;;;5035807;28;20025;-69
2023/06/22 04:31:36;;;;;;;13.23;6.22;;;20.10;76.70;;;;;;5035253;28;20022;-70
2023/06/22 04:34:06;;;;;;;10.60;6.15;;;20.20;76.40;;;;;;5039169;28;20060;-79
2023/06/22 04:36:40;;;;;;;10.45;5.20;;;20.30;76.30;;;;;;5020167;28;20037;-74
2023/06/22 04:39:10;;;;;;;10.20;5.93;;;20.40;76.00;;;;;;5035385;28;20307;-69
2023/06/22 04:41:43;;;;;;;11.40;5.40;;;20.50;75.70;;;;;;5035382;28;20025;-76
2023/06/22 04:44:10;;;;;;;7.32;5.97;;;20.50;75.40;;;;;;5035175;28;20021;-70
2023/06/22 04:46:38;;;;;;;16.33;7.22;;;20.60;75.20;;;;;;5034619;28;20064;-69
2023/06/22 04:49:09;;;;;;;12.00;6.97;;;20.60;75.00;;;;;;5036312;28;20029;-69
2023/06/22 04:51:42;;;;;;;12.43;6.75;;;20.50;75.60;;;;;;5034811;28;20060;-69
2023/06/22 04:54:08;;;;;;;11.20;6.97;;;20.60;75.60;;;;;;5034747;28;20021;-69
2023/06/22 04:56:34;;;;;;;14.38;7.93;;;20.50;76.30;;;;;;5034899;28;20029;-69
2023/06/22 04:59:00;;;;;;;12.90;8.73;;;20.60;75.40;;;;;;5034911;28;20024;-69
2023/06/22 05:01:26;;;;;;;11.88;7.55;;;20.50;75.70;;;;;;5034975;28;20092;-71
2023/06/22 05:03:55;;;;;;;10.18;7.15;;;20.60;75.70;;;;;;5034713;28;20075;-71
2023/06/22 05:06:26;;;;;;;13.50;8.50;;;20.70;75.60;;;;;;5035466;28;20053;-73
2023/06/22 05:08:59;;;;;;;13.18;8.48;;;20.70;75.90;;;;;;5034239;28;20092;-70
2023/06/22 05:11:28;;;;;;;20.33;10.98;;;20.80;75.70;;;;;;5016684;28;20028;-71
2023/06/22 05:13:55;;;;;;;14.32;11.13;;;20.90;76.40;;;;;;5034518;28;20056;-73
2023/06/22 05:16:24;;;;;;;15.90;11.65;;;20.70;77.20;;;;;;5034425;28;20439;-70
2023/06/22 05:18:53;;;;;;;15.02;9.38;;;20.70;78.10;;;;;;5033991;28;20048;-70
2023/06/22 05:21:22;;;;;;;18.15;10.60;;;20.70;77.20;;;;;;5034013;28;20028;-70
2023/06/22 05:23:47;;;;;;;14.13;9.73;;;20.80;77.40;;;;;;5034138;28;20028;-70
2023/06/22 05:26:13;;;;;;;18.55;11.95;;;21.00;76.80;;;;;;5034030;28;20033;-70
2023/06/22 05:28:38;;;;;;;18.38;10.55;;;20.80;77.40;;;;;;5033691;28;20029;-70
2023/06/22 05:31:04;;;;;;;21.77;11.43;;;20.90;77.20;;;;;;5033342;28;20041;-71
2023/06/22 05:33:29;;;;;;;17.38;10.55;;;21.20;76.20;;;;;;5033807;28;20524;-70
2023/06/22 05:35:55;;;;;;;14.23;9.32;;;20.80;77.10;;;;;;5033347;28;20056;-70
2023/06/22 05:38:20;;;;;;;13.90;8.73;;;20.90;76.90;;;;;;5033717;28;20018;-70
2023/06/22 05:40:46;;;;;;;13.75;9.00;;;21.10;76.40;;;;;;5033759;28;20060;-70
2023/06/22 05:43:11;;;;;;;14.55;8.10;;;21.40;75.30;;;;;;5033575;28;20075;-70
2023/06/22 05:45:37;;;;;;;15.57;7.55;;;21.60;74.20;;;;;;5033455;28;20029;-70
2023/06/22 05:48:02;;;;;;;17.63;8.82;;;21.80;73.60;;;;;;5033467;28;20018;-69
2023/06/22 05:50:28;;;;;;;12.63;9.02;;;21.90;73.80;;;;;;5033472;28;20059;-70
2023/06/22 05:52:53;;;;;;;15.30;9.40;;;22.00;73.40;;;;;;5015745;28;20022;-69
2023/06/22 05:55:19;;;;;;;15.43;8.65;;;22.00;73.30;;;;;;5033513;28;20038;-70
2023/06/22 05:57:45;;;;;;;16.95;10.23;;;22.10;72.90;;;;;;5033379;28;20014;-75
2023/06/22 06:00:11;;;;;;;12.30;8.10;;;22.20;72.60;;;;;;5032650;28;20025;-72
2023/06/22 06:02:43;;;;;;;13.48;8.98;;;22.40;72.10;;;;;;5033152;28;20155;-71
2023/06/22 06:05:14;;;;;;;15.07;9.30;;;22.50;71.40;;;;;;5033363;28;20442;-73
2023/06/22 06:07:39;;;;;;;14.18;8.32;;;22.60;71.70;;;;;;5033134;28;20028;-71
2023/06/22 06:10:06;;;;;;;14.50;9.05;;;22.80;70.50;;;;;;5033185;28;20029;-71
2023/06/22 06:12:32;;;;;;;14.82;9.45;;;22.90;70.10;;;;;;5033457;28;20103;-71
2023/06/22 06:14:57;;;;;;;16.38;8.90;;;22.90;69.40;;;;;;5032945;28;20462;-71
2023/06/22 06:17:23;;;;;;;16.05;9.65;;;22.90;69.60;;;;;;5033180;28;20029;-71
2023/06/22 06:19:48;;;;;;;17.83;8.52;;;22.80;69.50;;;;;;5033080;28;20025;-71
2023/06/22 06:22:14;;;;;;;15.98;10.27;;;22.80;70.20;;;;;;5033041;28;20060;-71
2023/06/22 06:24:39;;;;;;;15.65;9.55;;;22.70;70.60;;;;;;5015327;28;20021;-77
2023/06/22 06:27:05;;;;;;;17.63;8.85;;;22.80;70.50;;;;;;5032805;28;20347;-80
2023/06/22 06:29:31;;;;;;;19.48;9.02;;;22.90;70.10;;;;;;5033165;28;20225;-79
2023/06/22 06:31:57;;;;;;;14.07;8.70;;;23.10;69.60;;;;;;5032968;28;20437;-78
2023/06/22 06:34:23;;;;;;;14.68;9.07;;;23.20;69.10;;;;;;5032855;28;20029;-79
2023/06/22 06:36:48;;;;;;;19.45;9.07;;;23.20;69.00;;;;;;5032686;28;20029;-79
2023/06/22 06:39:14;;;;;;;14.38;8.25;;;23.10;69.80;;;;;;5032383;28;20030;-72
2023/06/22 06:41:39;;;;;;;30.30;9.48;;;23.10;69.70;;;;;;5032561;28;20037;-70
2023/06/22 06:44:05;;;;;;;19.52;9.02;;;23.30;68.70;;;;;;5049259;28;20036;-69
2023/06/22 06:46:31;;;;;;;12.68;7.35;;;23.50;67.50;;;;;;5052559;28;20208;-68
2023/06/22 06:48:56;;;;;;;10.07;6.30;;;23.80;66.50;;;;;;5052355;28;20021;-68
2023/06/22 06:51:22;;;;;;;15.48;7.43;;;24.10;65.60;;;;;;5052166;28;20021;-69
2023/06/22 06:53:47;;;;;;;11.63;6.22;;;24.30;64.80;;;;;;5052310;28;20021;-69
2023/06/22 06:56:13;;;;;;;13.27;7.35;;;24.50;64.10;;;;;;5052328;28;20032;-72
2023/06/22 06:58:42;;;;;;;10.25;6.38;;;24.70;63.30;;;;;;5052358;28;20021;-75
2023/06/22 07:01:08;;;;;;;10.82;6.22;;;24.90;62.70;;;;;;5052562;28;20038;-70
2023/06/22 07:03:33;;;;;;;10.75;6.05;;;25.00;62.10;;;;;;5052233;28;20021;-70
2023/06/22 07:05:59;;;;;;;15.23;7.50;;;25.10;61.80;;;;;;5052126;28;20473;-70
2023/06/22 07:08:25;;;;;;;13.73;7.00;;;25.10;61.10;;;;;;5033954;28;20111;-68
2023/06/22 07:10:52;;;;;;;12.50;7.35;;;25.20;61.50;;;;;;5054035;28;20457;-69
2023/06/22 07:13:17;;;;;;;10.35;6.80;;;25.30;61.30;;;;;;5050200;28;20079;-70
2023/06/22 07:15:43;;;;;;;11.32;6.18;;;25.40;60.90;;;;;;5036099;28;20045;-69
2023/06/22 07:18:10;;;;;;;10.90;5.93;;;25.50;60.30;;;;;;5036229;28;20053;-68
2023/06/22 07:20:35;;;;;;;15.38;6.22;;;25.70;59.90;;;;;;5036092;28;20032;-69
2023/06/22 07:23:01;;;;;;;17.23;6.45;;;25.70;59.20;;;;;;5035853;28;20057;-75
2023/06/22 07:25:26;;;;;;;13.00;5.57;;;25.90;58.80;;;;;;5035962;28;20061;-72
2023/06/22 07:28:04;;;;;;;17.98;6.82;;;25.90;58.60;;;;;;5036021;28;20029;-71
2023/06/22 07:30:31;;;;;;;9.88;5.57;;;25.90;58.60;;;;;;5018344;28;20470;-71
2023/06/22 07:32:58;;;;;;;10.00;5.45;;;25.90;58.40;;;;;;5036132;28;20382;-72
2023/06/22 07:35:24;;;;;;;10.32;5.93;;;25.90;58.40;;;;;;5036164;28;20064;-75
2023/06/22 07:37:49;;;;;;;13.98;7.25;;;25.90;58.20;;;;;;5035915;28;20171;-69
2023/06/22 07:40:15;;;;;;;12.00;6.32;;;26.00;58.20;;;;;;5036067;28;20112;-68
2023/06/22 07:42:41;;;;;;;11.70;6.95;;;25.70;59.50;;;;;;5036018;28;20025;-68
2023/06/22 07:45:10;;;;;;;15.27;6.53;;;25.70;59.70;;;;;;5036010;28;20104;-68
2023/06/22 07:47:36;;;;;;;14.63;6.60;;;25.50;61.00;;;;;;5036003;28;20021;-74
2023/06/22 07:50:03;;;;;;;13.07;5.82;;;25.40;61.20;;;;;;5035832;28;20032;-76
2023/06/22 07:52:29;;;;;;;12.60;6.57;;;25.50;60.40;;;;;;5035881;28;20036;-68
2023/06/22 07:54:54;;;;;;;10.65;5.82;;;25.70;59.90;;;;;;5035730;28;20076;-68
2023/06/22 07:57:20;;;;;;;12.65;6.40;;;25.80;60.20;;;;;;5035803;28;20112;-68
2023/06/22 07:59:46;;;;;;;18.35;7.80;;;26.00;58.90;;;;;;5035642;28;20470;-68
2023/06/22 08:02:12;;;;;;;14.20;7.38;;;25.90;58.80;;;;;;5035691;28;20033;-69
2023/06/22 08:04:38;;;;;;;13.68;6.90;;;25.80;59.50;;;;;;5035561;28;20018;-73
2023/06/22 08:07:04;;;;;;;12.32;6.95;;;25.90;58.70;;;;;;5035319;28;20124;-67
2023/06/22 08:09:32;;;;;;;17.23;7.25;;;25.90;58.50;;;;;;5035130;28;20056;-74
2023/06/22 08:11:58;;;;;;;12.90;6.93;;;25.90;58.30;;;;;;5035489;28;20036;-71
2023/06/22 08:14:26;;;;;;;15.30;7.63;;;25.80;58.90;;;;;;5035379;28;20037;-78
2023/06/22 08:16:51;;;;;;;13.10;6.82;;;25.70;59.60;;;;;;5035108;28;20129;-77
2023/06/22 08:19:17;;;;;;;18.10;8.45;;;25.60;59.60;;;;;;5035398;28;20057;-68
2023/06/22 08:21:43;;;;;;;14.23;6.75;;;25.60;59.50;;;;;;5034538;28;20360;-77
2023/06/22 08:24:09;;;;;;;14.68;7.95;;;25.70;59.50;;;;;;5035275;28;20029;-76
2023/06/22 08:26:36;;;;;;;13.90;7.55;;;25.80;58.90;;;;;;5017536;28;20032;-76
2023/06/22 08:29:05;;;;;;;14.80;8.82;;;25.90;59.60;;;;;;5017310;28;20109;-77
2023/06/22 08:31:33;;;;;;;24.73;11.05;;;25.70;61.10;;;;;;5017233;28;20025;-77
2023/06/22 08:33:58;;;;;;;18.35;10.10;;;25.70;60.80;;;;;;5035050;28;20025;-69
2023/06/22 08:36:24;;;;;;;10.82;7.28;;;25.80;61.20;;;;;;5034727;28;20442;-71
2023/06/22 08:38:51;;;;;;;16.20;8.60;;;26.00;60.60;;;;;;5023606;28;20064;-69
2023/06/22 08:41:17;;;;;;;15.63;7.70;;;26.10;61.00;;;;;;5025682;28;20026;-68
2023/06/22 08:43:44;;;;;;;11.77;7.70;;;26.10;62.30;;;;;;5023595;28;20033;-69
2023/06/22 08:46:10;;;;;;;16.40;9.00;;;26.20;60.80;;;;;;5023846;28;20120;-68
2023/06/22 08:48:36;;;;;;;14.82;8.65;;;26.30;60.50;;;;;;5024821;28;20403;-74
2023/06/22 08:51:02;;;;;;;17.92;8.88;;;26.10;61.00;;;;;;5023971;28;20033;-67
2023/06/22 08:53:27;;;;;;;17.00;8.35;;;26.10;61.20;;;;;;5023807;28;20020;-68
2023/06/22 08:55:53;;;;;;;12.95;7.53;;;26.30;60.00;;;;;;5023169;28;20038;-68
2023/06/22 08:58:21;;;;;;;18.08;8.27;;;26.50;60.30;;;;;;5025542;28;20434;-68
2023/06/22 09:00:47;;;;;;;14.95;8.10;;;26.70;59.20;;;;;;5025306;28;20438;-71
2023/06/22 09:03:13;;;;;;;14.63;8.55;;;26.80;58.40;;;;;;5023629;28;20033;-67
2023/06/22 09:05:39;;;;;;;13.63;7.90;;;27.00;59.20;;;;;;5016834;28;20445;-68
2023/06/22 09:08:04;;;;;;;17.35;8.38;;;27.10;58.50;;;;;;5014047;28;20108;-68
2023/06/22 09:10:30;;;;;;;16.63;7.93;;;27.10;58.90;;;;;;5019600;28;20486;-70
2023/06/22 09:12:56;;;;;;;13.63;7.78;;;27.20;57.80;;;;;;5024381;28;20014;-69
2023/06/22 09:15:22;;;;;;;10.60;6.00;;;27.40;57.10;;;;;;5005238;28;20037;-68
2023/06/22 09:17:48;;;;;;;13.48;8.02;;;27.60;56.40;;;;;;5025028;28;20039;-69
2023/06/22 09:20:14;;;;;;;13.20;7.25;;;27.90;57.00;;;;;;5024657;28;20037;-71
2023/06/22 09:22:40;;;;;;;11.45;7.03;;;28.00;56.30;;;;;;5023606;28;20072;-75
2023/06/22 09:25:05;;;;;;;15.75;8.30;;;28.20;56.00;;;;;;5025073;28;20022;-69
2023/06/22 09:27:31;;;;;;;9.70;6.95;;;28.30;54.90;;;;;;5026302;28;20062;-68
2023/06/22 09:29:58;;;;;;;10.93;6.50;;;28.40;54.60;;;;;;5024820;28;20105;-68
2023/06/22 09:32:25;;;;;;;11.85;6.63;;;28.40;53.80;;;;;;5018628;28;20024;-69
2023/06/22 09:34:50;;;;;;;13.32;7.35;;;28.50;53.70;;;;;;5021479;28;20030;-69
2023/06/22 09:37:16;;;;;;;15.43;7.18;;;28.60;53.70;;;;;;5024368;28;20486;-69
2023/06/22 09:39:41;;;;;;;13.98;6.90;;;28.60;53.00;;;;;;5023460;28;20033;-68
2023/06/22 09:42:07;;;;;;;16.13;7.47;;;28.60;53.10;;;;;;5033381;28;20033;-69
2023/06/22 09:44:33;;;;;;;15.98;7.55;;;28.60;53.40;;;;;;5033570;28;20536;-69
2023/06/22 09:46:59;;;;;;;20.33;7.03;;;28.50;52.80;;;;;;5033396;28;20378;-67
2023/06/22 09:49:25;;;;;;;17.13;7.25;;;28.50;52.70;;;;;;5032850;28;20404;-75
2023/06/22 09:51:52;;;;;;;14.55;7.55;;;28.60;53.50;;;;;;5032388;28;20030;-68
2023/06/22 09:54:17;;;;;;;17.42;7.60;;;28.60;53.30;;;;;;5029961;28;20022;-68
2023/06/22 09:56:44;;;;;;;16.95;6.82;;;28.70;53.10;;;;;;5023220;28;20029;-75
2023/06/22 09:59:09;;;;;;;22.40;8.02;;;28.90;51.60;;;;;;5023839;28;20018;-68
2023/06/22 10:01:35;;;;;;;13.82;6.88;;;29.00;51.30;;;;;;5021809;28;20033;-68
2023/06/22 10:04:02;;;;;;;10.43;5.68;;;29.20;51.00;;;;;;5023220;28;20060;-68
2023/06/22 10:06:28;;;;;;;16.80;6.70;;;29.50;50.50;;;;;;5022908;28;20025;-68
2023/06/22 10:08:53;;;;;;;13.13;7.25;;;29.80;50.00;;;;;;5004622;28;20421;-68
2023/06/22 10:11:19;;;;;;;11.90;6.70;;;30.00;49.30;;;;;;5012346;28;20026;-67
2023/06/22 10:13:45;;;;;;;13.88;6.80;;;30.00;48.50;;;;;;5007753;28;20045;-69
2023/06/22 10:16:10;;;;;;;14.25;6.35;;;30.10;48.20;;;;;;5013116;28;20124;-71
2023/06/22 10:18:36;;;;;;;10.27;5.38;;;30.20;49.60;;;;;;5013128;28;20032;-72
2023/06/22 10:21:02;;;;;;;12.15;6.78;;;30.30;48.40;;;;;;5001982;28;20026;-70
2023/06/22 10:23:27;;;;;;;13.38;6.10;;;30.30;47.70;;;;;;5004069;28;20045;-70
2023/06/22 10:25:53;;;;;;;14.07;6.80;;;30.40;47.80;;;;;;5002164;28;20100;-69
2023/06/22 10:28:19;;;;;;;15.60;6.97;;;30.40;46.60;;;;;;5010284;28;20080;-69
2023/06/22 10:30:44;;;;;;;15.90;7.32;;;30.30;46.70;;;;;;5011608;28;20022;-70
2023/06/22 10:33:11;;;;;;;16.13;7.20;;;30.30;47.10;;;;;;5011947;28;20029;-69
2023/06/22 10:35:38;;;;;;;13.20;7.05;;;30.10;48.20;;;;;;5012821;28;20537;-69
2023/06/22 10:38:04;;;;;;;14.90;6.80;;;30.00;49.10;;;;;;5012766;28;20034;-69
2023/06/22 10:40:30;;;;;;;16.17;6.93;;;29.80;47.70;;;;;;5012850;28;20092;-69
2023/06/22 10:42:55;;;;;;;13.63;6.57;;;29.70;47.90;;;;;;5012756;28;20038;-69
2023/06/22 10:45:21;;;;;;;22.10;7.15;;;29.70;47.20;;;;;;5012640;28;20093;-69
2023/06/22 10:47:47;;;;;;;19.10;6.88;;;29.70;47.90;;;;;;5012857;28;20030;-78
2023/06/22 10:50:12;;;;;;;14.38;6.63;;;29.70;48.40;;;;;;5012529;28;20030;-71
2023/06/22 10:52:38;;;;;;;15.80;7.38;;;29.70;47.40;;;;;;5012451;28;20026;-73
2023/06/22 10:55:04;;;;;;;17.98;7.57;;;29.80;47.80;;;;;;5012591;28;20091;-71
2023/06/22 10:57:30;;;;;;;11.82;6.82;;;29.80;47.80;;;;;;5010777;28;20034;-71
2023/06/22 10:59:55;;;;;;;14.05;6.93;;;29.70;46.30;;;;;;5012020;28;20520;-70
2023/06/22 11:02:21;;;;;;;15.43;6.40;;;29.80;46.70;;;;;;5011913;28;20041;-72
2023/06/22 11:04:47;;;;;;;13.15;6.10;;;29.70;46.30;;;;;;5012398;28;20022;-71
2023/06/22 11:07:13;;;;;;;13.57;6.57;;;29.80;47.10;;;;;;5012200;28;20354;-71
2023/06/22 11:09:39;;;;;;;12.52;6.10;;;29.90;47.30;;;;;;5029879;28;20041;-71
2023/06/22 11:12:06;;;;;;;15.43;6.30;;;29.90;48.00;;;;;;5031501;28;20044;-71
2023/06/22 11:14:33;;;;;;;15.85;6.25;;;30.00;47.90;;;;;;5031781;28;20070;-71
2023/06/22 11:16:59;;;;;;;11.55;6.18;;;30.00;47.40;;;;;;5031948;28;20486;-71
2023/06/22 11:19:24;;;;;;;19.33;6.72;;;30.20;47.10;;;;;;5032495;28;20060;-71
2023/06/22 11:21:50;;;;;;;14.45;6.30;;;30.30;45.80;;;;;;5031832;28;20037;-71
2023/06/22 11:24:16;;;;;;;13.30;6.85;;;30.40;45.70;;;;;;5032339;28;20026;-70
2023/06/22 11:26:42;;;;;;;14.85;6.47;;;30.60;45.20;;;;;;5032012;28;20025;-71
2023/06/22 11:29:08;;;;;;;16.05;6.50;;;30.70;44.00;;;;;;5032088;28;20101;-71
2023/06/22 11:31:35;;;;;;;14.80;5.82;;;30.80;43.40;;;;;;5031857;28;20057;-71
2023/06/22 11:34:01;;;;;;;20.83;6.95;;;30.90;43.70;;;;;;5031929;28;20022;-71
2023/06/22 11:36:28;;;;;;;11.68;5.75;;;31.00;45.20;;;;;;5031925;28;20045;-76
2023/06/22 11:38:54;;;;;;;11.20;5.82;;;31.00;45.20;;;;;;5032522;28;20535;-79
2023/06/22 11:41:20;;;;;;;14.43;6.95;;;31.10;44.70;;;;;;5032698;28;20033;-72
2023/06/22 11:43:45;;;;;;;15.50;6.43;;;31.10;44.30;;;;;;5032269;28;20029;-71
2023/06/22 11:46:11;;;;;;;10.45;5.55;;;31.00;43.90;;;;;;5032443;28;20056;-72
2023/06/22 11:48:37;;;;;;;15.57;6.35;;;31.00;44.30;;;;;;5032092;28;20498;-72
2023/06/22 11:51:03;;;;;;;19.13;6.35;;;30.80;44.50;;;;;;5014177;28;20029;-72
2023/06/22 11:53:29;;;;;;;15.00;6.47;;;30.70;45.20;;;;;;5032347;28;20025;-71
2023/06/22 11:55:55;;;;;;;17.80;6.65;;;30.50;45.40;;;;;;5032202;28;20449;-72
2023/06/22 11:58:21;;;;;;;14.05;6.03;;;30.30;46.00;;;;;;5035098;28;20060;-71
2023/06/22 12:00:46;;;;;;;12.60;6.68;;;30.10;46.40;;;;;;5036757;28;20029;-70
2023/06/22 12:03:12;;;;;;;13.95;6.85;;;30.00;46.90;;;;;;5035837;28;20067;-71
2023/06/22 12:05:38;;;;;;;13.15;6.35;;;29.90;47.10;;;;;;5035653;28;20374;-71
2023/06/22 12:08:04;;;;;;;17.35;7.28;;;29.90;46.00;;;;;;5035401;28;20038;-72
2023/06/22 12:10:30;;;;;;;16.77;6.15;;;29.80;46.70;;;;;;5001571;28;20029;-72
2023/06/22 12:12:57;;;;;;;20.08;6.90;;;29.80;46.30;;;;;;5036193;28;20021;-71
2023/06/22 12:15:23;;;;;;;15.57;7.05;;;29.80;46.40;;;;;;5035285;28;20022;-72
2023/06/22 12:17:48;;;;;;;15.10;7.13;;;29.90;46.40;;;;;;5018002;28;20040;-72
2023/06/22 12:20:14;;;;;;;14.07;6.47;;;30.00;47.20;;;;;;5035386;28;20024;-71
2023/06/22 12:22:41;;;;;;;21.55;7.47;;;29.90;47.90;;;;;;5035511;28;20025;-72
2023/06/22 12:25:07;;;;;;;13.10;7.15;;;30.00;49.30;;;;;;5035048;28;20475;-72
2023/06/22 12:27:33;;;;;;;15.02;6.55;;;30.00;48.70;;;;;;5034846;28;20033;-71
2023/06/22 12:29:59;;;;;;;15.75;6.75;;;29.90;48.60;;;;;;5035218;28;20025;-71
2023/06/22 12:32:25;;;;;;;10.75;5.90;;;30.00;48.80;;;;;;5035022;28;20383;-72
2023/06/22 12:34:51;;;;;;;15.63;7.15;;;30.00;48.70;;;;;;5034891;28;20053;-72